sensor_id;sensor_type;location;lat;lon;timestamp;P1;durP1;ratioP1;P2;durP2;ratioP2
58659;SDS011;44429;45.110;20.622;2023-04-24T00:00:03;12.35;;;4.25;;
58659;SDS011;44429;45.110;20.622;2023-04-24T00:02:34;13.77;;;4.85;;
58659;SDS011;44429;45.110;20.622;2023-04-24T00:05:03;7.93;;;4.20;;
58659;SDS011;44429;45.110;20.622;2023-04-24T00:07:29;9.05;;;4.28;;
58659;SDS011;44429;45.110;20.622;2023-04-24T00:09:55;10.50;;;4.38;;
58659;SDS011;44429;45.110;20.622;2023-04-24T00:12:21;12.63;;;4.55;;
58659;SDS011;44429;45.110;20.622;2023-04-24T00:14:47;12.57;;;4.45;;
58659;SDS011;44429;45.110;20.622;2023-04-24T00:17:13;10.60;;;4.40;;
58659;SDS011;44429;45.110;20.622;2023-04-24T00:19:40;9.80;;;4.60;;
58659;SDS011;44429;45.110;20.622;2023-04-24T00:22:06;9.38;;;4.40;;
58659;SDS011;44429;45.110;20.622;2023-04-24T00:24:32;11.20;;;4.22;;
58659;SDS011;44429;45.110;20.622;2023-04-24T00:26:58;10.30;;;4.40;;
58659;SDS011;44429;45.110;20.622;2023-04-24T00:29:25;9.05;;;4.18;;
58659;SDS011;44429;45.110;20.622;2023-04-24T00:31:53;9.45;;;4.45;;
58659;SDS011;44429;45.110;20.622;2023-04-24T00:34:19;10.02;;;4.10;;
58659;SDS011;44429;45.110;20.622;2023-04-24T00:36:45;10.98;;;4.07;;
58659;SDS011;44429;45.110;20.622;2023-04-24T00:39:11;13.68;;;4.90;;
58659;SDS011;44429;45.110;20.622;2023-04-24T00:41:37;9.52;;;4.45;;
58659;SDS011;44429;45.110;20.622;2023-04-24T00:44:03;11.95;;;4.55;;
58659;SDS011;44429;45.110;20.622;2023-04-24T00:46:29;14.05;;;5.32;;
58659;SDS011;44429;45.110;20.622;2023-04-24T00:48:56;15.38;;;4.63;;
58659;SDS011;44429;45.110;20.622;2023-04-24T00:51:22;10.80;;;4.70;;
58659;SDS011;44429;45.110;20.622;2023-04-24T00:53:49;13.27;;;4.90;;
58659;SDS011;44429;45.110;20.622;2023-04-24T00:56:16;13.10;;;5.32;;
58659;SDS011;44429;45.110;20.622;2023-04-24T00:58:42;10.20;;;4.60;;
58659;SDS011;44429;45.110;20.622;2023-04-24T01:01:09;10.93;;;4.93;;
58659;SDS011;44429;45.110;20.622;2023-04-24T01:03:36;16.85;;;5.38;;
58659;SDS011;44429;45.110;20.622;2023-04-24T01:06:03;9.63;;;4.50;;
58659;SDS011;44429;45.110;20.622;2023-04-24T01:08:29;13.32;;;5.38;;
58659;SDS011;44429;45.110;20.622;2023-04-24T01:10:56;11.57;;;5.15;;
58659;SDS011;44429;45.110;20.622;2023-04-24T01:13:23;12.75;;;4.95;;
58659;SDS011;44429;45.110;20.622;2023-04-24T01:15:49;13.00;;;5.00;;
58659;SDS011;44429;45.110;20.622;2023-04-24T01:18:15;12.82;;;5.72;;
58659;SDS011;44429;45.110;20.622;2023-04-24T01:20:42;11.63;;;5.75;;
58659;SDS011;44429;45.110;20.622;2023-04-24T01:23:10;8.57;;;5.20;;
58659;SDS011;44429;45.110;20.622;2023-04-24T01:25:36;9.32;;;5.57;;
58659;SDS011;44429;45.110;20.622;2023-04-24T01:28:03;13.93;;;6.13;;
58659;SDS011;44429;45.110;20.622;2023-04-24T01:30:29;11.95;;;5.75;;
58659;SDS011;44429;45.110;20.622;2023-04-24T01:32:56;10.65;;;5.43;;
58659;SDS011;44429;45.110;20.622;2023-04-24T01:35:22;11.10;;;6.20;;
58659;SDS011;44429;45.110;20.622;2023-04-24T01:37:48;10.55;;;6.03;;
58659;SDS011;44429;45.110;20.622;2023-04-24T01:40:14;11.88;;;5.90;;
58659;SDS011;44429;45.110;20.622;2023-04-24T01:42:41;14.35;;;6.00;;
58659;SDS011;44429;45.110;20.622;2023-04-24T01:45:08;11.52;;;5.97;;
58659;SDS011;44429;45.110;20.622;2023-04-24T01:47:35;14.75;;;5.82;;
58659;SDS011;44429;45.110;20.622;2023-04-24T01:50:02;9.65;;;5.47;;
58659;SDS011;44429;45.110;20.622;2023-04-24T01:52:29;12.55;;;6.72;;
58659;SDS011;44429;45.110;20.622;2023-04-24T01:54:59;9.55;;;5.13;;
58659;SDS011;44429;45.110;20.622;2023-04-24T01:57:25;13.90;;;5.00;;
58659;SDS011;44429;45.110;20.622;2023-04-24T01:59:51;12.70;;;5.93;;
58659;SDS011;44429;45.110;20.622;2023-04-24T02:02:17;10.32;;;5.25;;
58659;SDS011;44429;45.110;20.622;2023-04-24T02:04:46;13.07;;;5.40;;
58659;SDS011;44429;45.110;20.622;2023-04-24T02:07:12;10.80;;;5.95;;
58659;SDS011;44429;45.110;20.622;2023-04-24T02:09:38;11.13;;;5.80;;
58659;SDS011;44429;45.110;20.622;2023-04-24T02:12:04;12.68;;;5.88;;
58659;SDS011;44429;45.110;20.622;2023-04-24T02:14:30;10.57;;;5.60;;
58659;SDS011;44429;45.110;20.622;2023-04-24T02:16:56;9.52;;;5.38;;
58659;SDS011;44429;45.110;20.622;2023-04-24T02:19:22;12.73;;;5.63;;
58659;SDS011;44429;45.110;20.622;2023-04-24T02:21:48;10.48;;;5.63;;
58659;SDS011;44429;45.110;20.622;2023-04-24T02:24:15;9.60;;;5.60;;
58659;SDS011;44429;45.110;20.622;2023-04-24T02:26:41;10.57;;;5.90;;
58659;SDS011;44429;45.110;20.622;2023-04-24T02:29:07;12.05;;;5.82;;
58659;SDS011;44429;45.110;20.622;2023-04-24T02:31:33;11.93;;;6.05;;
58659;SDS011;44429;45.110;20.622;2023-04-24T02:33:59;9.45;;;5.28;;
58659;SDS011;44429;45.110;20.622;2023-04-24T02:36:26;11.35;;;4.65;;
58659;SDS011;44429;45.110;20.622;2023-04-24T02:38:55;11.65;;;5.18;;
58659;SDS011;44429;45.110;20.622;2023-04-24T02:41:21;10.63;;;5.60;;
58659;SDS011;44429;45.110;20.622;2023-04-24T02:43:47;14.90;;;5.63;;
58659;SDS011;44429;45.110;20.622;2023-04-24T02:46:13;10.27;;;5.03;;
58659;SDS011;44429;45.110;20.622;2023-04-24T02:48:39;11.38;;;5.38;;
58659;SDS011;44429;45.110;20.622;2023-04-24T02:51:05;11.77;;;5.00;;
58659;SDS011;44429;45.110;20.622;2023-04-24T02:53:32;10.68;;;5.15;;
58659;SDS011;44429;45.110;20.622;2023-04-24T02:55:58;10.30;;;5.15;;
58659;SDS011;44429;45.110;20.622;2023-04-24T02:58:24;11.55;;;5.35;;
58659;SDS011;44429;45.110;20.622;2023-04-24T03:00:53;10.45;;;5.50;;
58659;SDS011;44429;45.110;20.622;2023-04-24T03:03:21;11.18;;;5.38;;
58659;SDS011;44429;45.110;20.622;2023-04-24T03:05:47;10.77;;;5.32;;
58659;SDS011;44429;45.110;20.622;2023-04-24T03:08:13;12.18;;;6.00;;
58659;SDS011;44429;45.110;20.622;2023-04-24T03:10:41;11.68;;;5.45;;
58659;SDS011;44429;45.110;20.622;2023-04-24T03:13:07;10.68;;;5.10;;
58659;SDS011;44429;45.110;20.622;2023-04-24T03:15:33;8.85;;;5.05;;
58659;SDS011;44429;45.110;20.622;2023-04-24T03:18:00;11.63;;;5.88;;
58659;SDS011;44429;45.110;20.622;2023-04-24T03:20:26;11.80;;;5.70;;
58659;SDS011;44429;45.110;20.622;2023-04-24T03:22:52;9.95;;;5.45;;
58659;SDS011;44429;45.110;20.622;2023-04-24T03:25:18;11.07;;;5.45;;
58659;SDS011;44429;45.110;20.622;2023-04-24T03:27:44;13.57;;;5.78;;
58659;SDS011;44429;45.110;20.622;2023-04-24T03:30:11;9.38;;;5.30;;
58659;SDS011;44429;45.110;20.622;2023-04-24T03:32:37;11.60;;;5.68;;
58659;SDS011;44429;45.110;20.622;2023-04-24T03:35:05;10.80;;;5.30;;
58659;SDS011;44429;45.110;20.622;2023-04-24T03:37:32;12.27;;;5.38;;
58659;SDS011;44429;45.110;20.622;2023-04-24T03:39:59;12.57;;;6.40;;
58659;SDS011;44429;45.110;20.622;2023-04-24T03:42:25;10.60;;;5.45;;
58659;SDS011;44429;45.110;20.622;2023-04-24T03:44:51;8.93;;;5.30;;
58659;SDS011;44429;45.110;20.622;2023-04-24T03:47:18;11.45;;;5.63;;
58659;SDS011;44429;45.110;20.622;2023-04-24T03:49:56;9.57;;;5.47;;
58659;SDS011;44429;45.110;20.622;2023-04-24T03:52:22;13.13;;;5.30;;
58659;SDS011;44429;45.110;20.622;2023-04-24T03:54:48;10.80;;;4.95;;
58659;SDS011;44429;45.110;20.622;2023-04-24T03:57:14;9.82;;;5.25;;
58659;SDS011;44429;45.110;20.622;2023-04-24T03:59:40;14.00;;;6.45;;
58659;SDS011;44429;45.110;20.622;2023-04-24T04:02:06;14.32;;;5.25;;
58659;SDS011;44429;45.110;20.622;2023-04-24T04:04:32;13.43;;;4.90;;
58659;SDS011;44429;45.110;20.622;2023-04-24T04:06:58;10.80;;;5.03;;
58659;SDS011;44429;45.110;20.622;2023-04-24T04:09:26;11.55;;;4.85;;
58659;SDS011;44429;45.110;20.622;2023-04-24T04:11:52;9.63;;;4.15;;
58659;SDS011;44429;45.110;20.622;2023-04-24T04:14:18;12.05;;;4.75;;
58659;SDS011;44429;45.110;20.622;2023-04-24T04:16:45;8.88;;;4.47;;
58659;SDS011;44429;45.110;20.622;2023-04-24T04:19:11;9.38;;;5.05;;
58659;SDS011;44429;45.110;20.622;2023-04-24T04:21:37;10.68;;;4.13;;
58659;SDS011;44429;45.110;20.622;2023-04-24T04:24:03;9.95;;;4.80;;
58659;SDS011;44429;45.110;20.622;2023-04-24T04:26:30;10.45;;;4.97;;
58659;SDS011;44429;45.110;20.622;2023-04-24T04:28:58;10.18;;;4.90;;
58659;SDS011;44429;45.110;20.622;2023-04-24T04:31:25;11.68;;;5.20;;
58659;SDS011;44429;45.110;20.622;2023-04-24T04:33:51;11.18;;;5.57;;
58659;SDS011;44429;45.110;20.622;2023-04-24T04:36:17;12.07;;;5.30;;
58659;SDS011;44429;45.110;20.622;2023-04-24T04:38:43;11.73;;;5.40;;
58659;SDS011;44429;45.110;20.622;2023-04-24T04:41:10;14.85;;;5.90;;
58659;SDS011;44429;45.110;20.622;2023-04-24T04:43:36;12.80;;;5.65;;
58659;SDS011;44429;45.110;20.622;2023-04-24T04:46:04;17.05;;;6.32;;
58659;SDS011;44429;45.110;20.622;2023-04-24T04:48:31;16.40;;;6.32;;
58659;SDS011;44429;45.110;20.622;2023-04-24T04:50:57;16.92;;;7.15;;
58659;SDS011;44429;45.110;20.622;2023-04-24T04:53:24;15.48;;;6.10;;
58659;SDS011;44429;45.110;20.622;2023-04-24T04:55:50;13.32;;;6.20;;
58659;SDS011;44429;45.110;20.622;2023-04-24T04:58:17;13.65;;;6.03;;
58659;SDS011;44429;45.110;20.622;2023-04-24T05:00:43;11.95;;;5.82;;
58659;SDS011;44429;45.110;20.622;2023-04-24T05:03:09;11.18;;;5.80;;
58659;SDS011;44429;45.110;20.622;2023-04-24T05:05:35;13.20;;;5.93;;
58659;SDS011;44429;45.110;20.622;2023-04-24T05:08:05;12.05;;;5.90;;
58659;SDS011;44429;45.110;20.622;2023-04-24T05:10:31;12.45;;;6.35;;
58659;SDS011;44429;45.110;20.622;2023-04-24T05:12:57;11.63;;;6.38;;
58659;SDS011;44429;45.110;20.622;2023-04-24T05:15:24;15.10;;;6.82;;
58659;SDS011;44429;45.110;20.622;2023-04-24T05:17:50;13.05;;;7.15;;
58659;SDS011;44429;45.110;20.622;2023-04-24T05:20:16;10.80;;;6.65;;
58659;SDS011;44429;45.110;20.622;2023-04-24T05:22:42;11.85;;;6.95;;
58659;SDS011;44429;45.110;20.622;2023-04-24T05:25:08;13.48;;;7.00;;
58659;SDS011;44429;45.110;20.622;2023-04-24T05:27:34;11.30;;;6.80;;
58659;SDS011;44429;45.110;20.622;2023-04-24T05:30:01;14.70;;;7.10;;
58659;SDS011;44429;45.110;20.622;2023-04-24T05:32:27;13.45;;;7.25;;
58659;SDS011;44429;45.110;20.622;2023-04-24T05:34:53;12.77;;;6.72;;
58659;SDS011;44429;45.110;20.622;2023-04-24T05:37:19;15.50;;;6.78;;
58659;SDS011;44429;45.110;20.622;2023-04-24T05:39:45;12.20;;;6.13;;
58659;SDS011;44429;45.110;20.622;2023-04-24T05:42:11;17.90;;;7.47;;
58659;SDS011;44429;45.110;20.622;2023-04-24T05:44:37;10.23;;;5.53;;
58659;SDS011;44429;45.110;20.622;2023-04-24T05:47:03;10.57;;;5.15;;
58659;SDS011;44429;45.110;20.622;2023-04-24T05:49:29;11.13;;;6.35;;
58659;SDS011;44429;45.110;20.622;2023-04-24T05:51:56;13.38;;;6.60;;
58659;SDS011;44429;45.110;20.622;2023-04-24T05:54:22;10.48;;;6.50;;
58659;SDS011;44429;45.110;20.622;2023-04-24T05:56:49;11.02;;;5.65;;
58659;SDS011;44429;45.110;20.622;2023-04-24T05:59:15;12.43;;;6.50;;
58659;SDS011;44429;45.110;20.622;2023-04-24T06:01:41;13.10;;;6.55;;
58659;SDS011;44429;45.110;20.622;2023-04-24T06:04:08;12.88;;;6.15;;
58659;SDS011;44429;45.110;20.622;2023-04-24T06:06:34;15.07;;;6.85;;
58659;SDS011;44429;45.110;20.622;2023-04-24T06:09:01;12.73;;;6.28;;
58659;SDS011;44429;45.110;20.622;2023-04-24T06:11:27;11.02;;;6.28;;
58659;SDS011;44429;45.110;20.622;2023-04-24T06:13:54;12.98;;;6.75;;
58659;SDS011;44429;45.110;20.622;2023-04-24T06:16:20;13.68;;;6.97;;
58659;SDS011;44429;45.110;20.622;2023-04-24T06:18:46;13.30;;;6.50;;
58659;SDS011;44429;45.110;20.622;2023-04-24T06:21:12;10.75;;;6.00;;
58659;SDS011;44429;45.110;20.622;2023-04-24T06:23:38;10.90;;;6.55;;
58659;SDS011;44429;45.110;20.622;2023-04-24T06:26:04;13.32;;;5.95;;
58659;SDS011;44429;45.110;20.622;2023-04-24T06:28:31;10.13;;;5.75;;
58659;SDS011;44429;45.110;20.622;2023-04-24T06:30:57;10.15;;;6.03;;
58659;SDS011;44429;45.110;20.622;2023-04-24T06:33:23;11.40;;;6.35;;
58659;SDS011;44429;45.110;20.622;2023-04-24T06:35:49;15.30;;;6.78;;
58659;SDS011;44429;45.110;20.622;2023-04-24T06:38:17;10.27;;;6.38;;
58659;SDS011;44429;45.110;20.622;2023-04-24T06:40:43;14.40;;;6.30;;
58659;SDS011;44429;45.110;20.622;2023-04-24T06:43:09;11.10;;;6.53;;
58659;SDS011;44429;45.110;20.622;2023-04-24T06:45:36;11.23;;;6.50;;
58659;SDS011;44429;45.110;20.622;2023-04-24T06:48:03;12.35;;;6.93;;
58659;SDS011;44429;45.110;20.622;2023-04-24T06:50:29;20.83;;;12.73;;
58659;SDS011;44429;45.110;20.622;2023-04-24T06:52:56;11.73;;;6.93;;
58659;SDS011;44429;45.110;20.622;2023-04-24T06:55:22;11.40;;;6.88;;
58659;SDS011;44429;45.110;20.622;2023-04-24T06:57:48;12.63;;;6.10;;
58659;SDS011;44429;45.110;20.622;2023-04-24T07:00:14;11.43;;;7.00;;
58659;SDS011;44429;45.110;20.622;2023-04-24T07:02:40;11.52;;;6.80;;
58659;SDS011;44429;45.110;20.622;2023-04-24T07:05:06;13.93;;;5.43;;
58659;SDS011;44429;45.110;20.622;2023-04-24T07:07:33;11.88;;;6.32;;
58659;SDS011;44429;45.110;20.622;2023-04-24T07:09:59;10.75;;;6.05;;
58659;SDS011;44429;45.110;20.622;2023-04-24T07:12:25;14.43;;;5.88;;
58659;SDS011;44429;45.110;20.622;2023-04-24T07:14:51;11.55;;;6.57;;
58659;SDS011;44429;45.110;20.622;2023-04-24T07:17:17;11.75;;;6.68;;
58659;SDS011;44429;45.110;20.622;2023-04-24T07:19:44;10.40;;;6.40;;
58659;SDS011;44429;45.110;20.622;2023-04-24T07:22:10;10.90;;;6.85;;
58659;SDS011;44429;45.110;20.622;2023-04-24T07:24:41;10.10;;;5.65;;
58659;SDS011;44429;45.110;20.622;2023-04-24T07:27:08;13.10;;;6.35;;
58659;SDS011;44429;45.110;20.622;2023-04-24T07:29:34;12.60;;;6.43;;
58659;SDS011;44429;45.110;20.622;2023-04-24T07:32:00;13.00;;;6.68;;
58659;SDS011;44429;45.110;20.622;2023-04-24T07:34:26;11.88;;;5.97;;
58659;SDS011;44429;45.110;20.622;2023-04-24T07:36:52;11.05;;;6.50;;
58659;SDS011;44429;45.110;20.622;2023-04-24T07:39:19;12.60;;;7.47;;
58659;SDS011;44429;45.110;20.622;2023-04-24T07:41:45;11.07;;;6.43;;
58659;SDS011;44429;45.110;20.622;2023-04-24T07:44:11;12.45;;;6.60;;
58659;SDS011;44429;45.110;20.622;2023-04-24T07:46:37;11.05;;;6.90;;
58659;SDS011;44429;45.110;20.622;2023-04-24T07:49:03;11.80;;;6.88;;
58659;SDS011;44429;45.110;20.622;2023-04-24T07:51:30;12.55;;;6.93;;
58659;SDS011;44429;45.110;20.622;2023-04-24T07:53:57;15.02;;;6.97;;
58659;SDS011;44429;45.110;20.622;2023-04-24T07:56:23;12.18;;;7.38;;
58659;SDS011;44429;45.110;20.622;2023-04-24T07:58:50;12.75;;;6.38;;
58659;SDS011;44429;45.110;20.622;2023-04-24T08:01:16;12.77;;;6.65;;
58659;SDS011;44429;45.110;20.622;2023-04-24T08:03:42;15.25;;;6.47;;
58659;SDS011;44429;45.110;20.622;2023-04-24T08:06:08;10.82;;;6.28;;
58659;SDS011;44429;45.110;20.622;2023-04-24T08:08:35;13.00;;;6.00;;
58659;SDS011;44429;45.110;20.622;2023-04-24T08:11:01;12.77;;;6.28;;
58659;SDS011;44429;45.110;20.622;2023-04-24T08:13:27;15.48;;;7.47;;
58659;SDS011;44429;45.110;20.622;2023-04-24T08:15:53;12.57;;;7.10;;
58659;SDS011;44429;45.110;20.622;2023-04-24T08:18:19;11.32;;;6.18;;
58659;SDS011;44429;45.110;20.622;2023-04-24T08:20:45;12.57;;;5.85;;
58659;SDS011;44429;45.110;20.622;2023-04-24T08:23:11;13.35;;;6.20;;
58659;SDS011;44429;45.110;20.622;2023-04-24T08:25:37;11.80;;;6.57;;
58659;SDS011;44429;45.110;20.622;2023-04-24T08:28:05;12.07;;;7.18;;
58659;SDS011;44429;45.110;20.622;2023-04-24T08:30:31;11.38;;;6.60;;
58659;SDS011;44429;45.110;20.622;2023-04-24T08:32:57;12.32;;;7.07;;
58659;SDS011;44429;45.110;20.622;2023-04-24T08:35:24;14.88;;;7.30;;
58659;SDS011;44429;45.110;20.622;2023-04-24T08:37:51;12.27;;;6.97;;
58659;SDS011;44429;45.110;20.622;2023-04-24T08:40:17;12.20;;;7.10;;
58659;SDS011;44429;45.110;20.622;2023-04-24T08:42:44;21.85;;;14.25;;
58659;SDS011;44429;45.110;20.622;2023-04-24T08:45:11;19.42;;;13.70;;
58659;SDS011;44429;45.110;20.622;2023-04-24T08:47:40;18.20;;;9.32;;
58659;SDS011;44429;45.110;20.622;2023-04-24T08:50:07;10.57;;;6.10;;
58659;SDS011;44429;45.110;20.622;2023-04-24T08:52:34;10.30;;;5.57;;
58659;SDS011;44429;45.110;20.622;2023-04-24T08:55:00;11.07;;;6.53;;
58659;SDS011;44429;45.110;20.622;2023-04-24T08:57:26;12.52;;;6.72;;
58659;SDS011;44429;45.110;20.622;2023-04-24T08:59:53;13.82;;;6.70;;
58659;SDS011;44429;45.110;20.622;2023-04-24T09:37:58;15.07;;;9.57;;
58659;SDS011;44429;45.110;20.622;2023-04-24T09:42:54;15.25;;;9.32;;
58659;SDS011;44429;45.110;20.622;2023-04-24T09:45:21;14.32;;;9.02;;
58659;SDS011;44429;45.110;20.622;2023-04-24T09:47:51;20.13;;;12.40;;
58659;SDS011;44429;45.110;20.622;2023-04-24T09:50:20;16.83;;;11.80;;
58659;SDS011;44429;45.110;20.622;2023-04-24T09:52:55;15.45;;;9.05;;
58659;SDS011;44429;45.110;20.622;2023-04-24T09:55:21;10.82;;;7.72;;
58659;SDS011;44429;45.110;20.622;2023-04-24T09:57:55;12.63;;;7.22;;
58659;SDS011;44429;45.110;20.622;2023-04-24T10:02:54;21.05;;;12.95;;
58659;SDS011;44429;45.110;20.622;2023-04-24T10:05:22;11.98;;;8.88;;
58659;SDS011;44429;45.110;20.622;2023-04-24T10:07:49;11.93;;;7.82;;
58659;SDS011;44429;45.110;20.622;2023-04-24T10:10:15;11.27;;;8.18;;
58659;SDS011;44429;45.110;20.622;2023-04-24T10:12:42;15.25;;;8.15;;
58659;SDS011;44429;45.110;20.622;2023-04-24T10:15:09;11.70;;;8.05;;
58659;SDS011;44429;45.110;20.622;2023-04-24T10:17:37;11.45;;;8.10;;
58659;SDS011;44429;45.110;20.622;2023-04-24T10:20:04;11.85;;;8.13;;
58659;SDS011;44429;45.110;20.622;2023-04-24T10:22:32;15.15;;;8.98;;
58659;SDS011;44429;45.110;20.622;2023-04-24T10:24:58;15.90;;;9.65;;
58659;SDS011;44429;45.110;20.622;2023-04-24T10:27:25;12.85;;;9.13;;
58659;SDS011;44429;45.110;20.622;2023-04-24T10:29:52;12.90;;;8.95;;
58659;SDS011;44429;45.110;20.622;2023-04-24T10:32:19;13.05;;;8.60;;
58659;SDS011;44429;45.110;20.622;2023-04-24T10:34:45;11.30;;;8.98;;
58659;SDS011;44429;45.110;20.622;2023-04-24T10:37:11;14.18;;;9.00;;
58659;SDS011;44429;45.110;20.622;2023-04-24T10:39:38;15.90;;;9.25;;
58659;SDS011;44429;45.110;20.622;2023-04-24T10:42:15;15.23;;;10.52;;
58659;SDS011;44429;45.110;20.622;2023-04-24T10:44:41;14.80;;;10.48;;
58659;SDS011;44429;45.110;20.622;2023-04-24T10:47:12;14.05;;;9.32;;
58659;SDS011;44429;45.110;20.622;2023-04-24T10:49:39;15.88;;;9.30;;
58659;SDS011;44429;45.110;20.622;2023-04-24T10:52:05;15.07;;;8.95;;
58659;SDS011;44429;45.110;20.622;2023-04-24T10:59:51;27.05;;;15.90;;
58659;SDS011;44429;45.110;20.622;2023-04-24T11:02:35;21.50;;;13.43;;
58659;SDS011;44429;45.110;20.622;2023-04-24T11:05:05;18.40;;;13.20;;
58659;SDS011;44429;45.110;20.622;2023-04-24T11:10:25;29.42;;;16.13;;
58659;SDS011;44429;45.110;20.622;2023-04-24T11:12:52;17.77;;;9.85;;
58659;SDS011;44429;45.110;20.622;2023-04-24T11:15:18;13.15;;;8.85;;
58659;SDS011;44429;45.110;20.622;2023-04-24T11:17:51;15.25;;;10.50;;
58659;SDS011;44429;45.110;20.622;2023-04-24T11:20:22;17.77;;;9.15;;
58659;SDS011;44429;45.110;20.622;2023-04-24T11:22:50;13.48;;;9.00;;
58659;SDS011;44429;45.110;20.622;2023-04-24T11:25:18;12.70;;;9.18;;
58659;SDS011;44429;45.110;20.622;2023-04-24T11:27:46;14.82;;;9.93;;
58659;SDS011;44429;45.110;20.622;2023-04-24T11:30:16;13.27;;;8.55;;
58659;SDS011;44429;45.110;20.622;2023-04-24T11:32:43;12.88;;;9.00;;
58659;SDS011;44429;45.110;20.622;2023-04-24T11:35:16;14.05;;;9.07;;
58659;SDS011;44429;45.110;20.622;2023-04-24T11:37:43;14.70;;;9.20;;
58659;SDS011;44429;45.110;20.622;2023-04-24T11:40:16;15.43;;;10.48;;
58659;SDS011;44429;45.110;20.622;2023-04-24T11:42:44;16.70;;;11.90;;
58659;SDS011;44429;45.110;20.622;2023-04-24T11:45:12;15.98;;;9.90;;
58659;SDS011;44429;45.110;20.622;2023-04-24T11:47:38;15.27;;;9.43;;
58659;SDS011;44429;45.110;20.622;2023-04-24T11:50:06;14.98;;;9.38;;
58659;SDS011;44429;45.110;20.622;2023-04-24T11:52:33;16.85;;;10.80;;
58659;SDS011;44429;45.110;20.622;2023-04-24T11:54:59;18.33;;;12.48;;
58659;SDS011;44429;45.110;20.622;2023-04-24T11:57:25;19.02;;;15.70;;
58659;SDS011;44429;45.110;20.622;2023-04-24T11:59:54;21.05;;;15.40;;
58659;SDS011;44429;45.110;20.622;2023-04-24T12:02:23;16.70;;;11.50;;
58659;SDS011;44429;45.110;20.622;2023-04-24T12:04:50;18.30;;;12.25;;
58659;SDS011;44429;45.110;20.622;2023-04-24T12:07:16;17.90;;;11.80;;
58659;SDS011;44429;45.110;20.622;2023-04-24T12:09:43;19.85;;;12.32;;
58659;SDS011;44429;45.110;20.622;2023-04-24T12:12:10;19.67;;;13.60;;
58659;SDS011;44429;45.110;20.622;2023-04-24T12:14:43;16.77;;;11.98;;
58659;SDS011;44429;45.110;20.622;2023-04-24T12:17:09;13.38;;;10.10;;
58659;SDS011;44429;45.110;20.622;2023-04-24T12:19:36;16.05;;;10.52;;
58659;SDS011;44429;45.110;20.622;2023-04-24T12:22:02;15.25;;;9.65;;
58659;SDS011;44429;45.110;20.622;2023-04-24T12:24:30;16.35;;;10.13;;
58659;SDS011;44429;45.110;20.622;2023-04-24T12:26:56;13.45;;;9.95;;
58659;SDS011;44429;45.110;20.622;2023-04-24T12:29:23;12.98;;;8.45;;
58659;SDS011;44429;45.110;20.622;2023-04-24T12:31:50;12.88;;;9.15;;
58659;SDS011;44429;45.110;20.622;2023-04-24T12:37:13;12.50;;;7.60;;
58659;SDS011;44429;45.110;20.622;2023-04-24T12:39:39;14.68;;;8.77;;
58659;SDS011;44429;45.110;20.622;2023-04-24T12:42:11;13.43;;;8.20;;
58659;SDS011;44429;45.110;20.622;2023-04-24T12:44:37;11.65;;;7.90;;
58659;SDS011;44429;45.110;20.622;2023-04-24T12:47:03;15.05;;;9.20;;
58659;SDS011;44429;45.110;20.622;2023-04-24T12:49:30;13.65;;;8.82;;
58659;SDS011;44429;45.110;20.622;2023-04-24T12:51:56;14.07;;;8.90;;
58659;SDS011;44429;45.110;20.622;2023-04-24T12:54:22;18.27;;;9.25;;
58659;SDS011;44429;45.110;20.622;2023-04-24T12:56:48;14.45;;;8.95;;
58659;SDS011;44429;45.110;20.622;2023-04-24T12:59:14;17.55;;;11.18;;
58659;SDS011;44429;45.110;20.622;2023-04-24T13:01:40;18.95;;;9.82;;
58659;SDS011;44429;45.110;20.622;2023-04-24T13:04:07;17.75;;;11.85;;
58659;SDS011;44429;45.110;20.622;2023-04-24T13:06:33;16.33;;;11.00;;
58659;SDS011;44429;45.110;20.622;2023-04-24T13:08:59;20.17;;;12.68;;
58659;SDS011;44429;45.110;20.622;2023-04-24T13:11:25;15.68;;;11.05;;
58659;SDS011;44429;45.110;20.622;2023-04-24T13:13:52;15.82;;;10.55;;
58659;SDS011;44429;45.110;20.622;2023-04-24T13:16:18;12.75;;;8.85;;
58659;SDS011;44429;45.110;20.622;2023-04-24T13:18:44;15.23;;;9.93;;
58659;SDS011;44429;45.110;20.622;2023-04-24T13:21:10;16.10;;;9.75;;
58659;SDS011;44429;45.110;20.622;2023-04-24T13:23:36;16.60;;;10.30;;
58659;SDS011;44429;45.110;20.622;2023-04-24T13:26:02;21.60;;;10.20;;
58659;SDS011;44429;45.110;20.622;2023-04-24T13:28:28;14.63;;;10.32;;
58659;SDS011;44429;45.110;20.622;2023-04-24T13:30:55;13.40;;;10.10;;
58659;SDS011;44429;45.110;20.622;2023-04-24T13:33:21;15.93;;;10.32;;
58659;SDS011;44429;45.110;20.622;2023-04-24T13:35:47;16.27;;;9.73;;
58659;SDS011;44429;45.110;20.622;2023-04-24T13:38:13;14.48;;;9.18;;
58659;SDS011;44429;45.110;20.622;2023-04-24T13:40:39;14.68;;;10.27;;
58659;SDS011;44429;45.110;20.622;2023-04-24T13:43:05;18.98;;;11.85;;
58659;SDS011;44429;45.110;20.622;2023-04-24T13:45:32;20.48;;;12.10;;
58659;SDS011;44429;45.110;20.622;2023-04-24T13:47:58;20.75;;;12.75;;
58659;SDS011;44429;45.110;20.622;2023-04-24T13:50:24;24.77;;;13.02;;
58659;SDS011;44429;45.110;20.622;2023-04-24T13:52:51;17.63;;;12.95;;
58659;SDS011;44429;45.110;20.622;2023-04-24T13:55:17;19.38;;;11.95;;
58659;SDS011;44429;45.110;20.622;2023-04-24T13:57:43;17.90;;;11.75;;
58659;SDS011;44429;45.110;20.622;2023-04-24T14:00:09;15.77;;;11.88;;
58659;SDS011;44429;45.110;20.622;2023-04-24T14:02:36;17.58;;;10.63;;
58659;SDS011;44429;45.110;20.622;2023-04-24T14:05:02;19.42;;;11.45;;
58659;SDS011;44429;45.110;20.622;2023-04-24T14:07:28;16.35;;;9.73;;
58659;SDS011;44429;45.110;20.622;2023-04-24T14:09:55;14.85;;;10.27;;
58659;SDS011;44429;45.110;20.622;2023-04-24T14:12:21;16.00;;;10.25;;
58659;SDS011;44429;45.110;20.622;2023-04-24T14:14:48;16.48;;;10.40;;
58659;SDS011;44429;45.110;20.622;2023-04-24T14:17:14;14.98;;;8.75;;
58659;SDS011;44429;45.110;20.622;2023-04-24T14:19:40;14.75;;;8.93;;
58659;SDS011;44429;45.110;20.622;2023-04-24T14:22:06;15.00;;;10.10;;
58659;SDS011;44429;45.110;20.622;2023-04-24T14:24:32;17.55;;;11.38;;
58659;SDS011;44429;45.110;20.622;2023-04-24T14:26:58;17.20;;;10.15;;
58659;SDS011;44429;45.110;20.622;2023-04-24T14:29:25;17.02;;;9.02;;
58659;SDS011;44429;45.110;20.622;2023-04-24T14:31:51;20.60;;;11.63;;
58659;SDS011;44429;45.110;20.622;2023-04-24T14:34:17;18.35;;;11.32;;
58659;SDS011;44429;45.110;20.622;2023-04-24T14:36:44;16.88;;;10.25;;
58659;SDS011;44429;45.110;20.622;2023-04-24T14:39:10;14.95;;;8.82;;
58659;SDS011;44429;45.110;20.622;2023-04-24T14:41:37;21.20;;;12.00;;
58659;SDS011;44429;45.110;20.622;2023-04-24T14:44:04;22.40;;;14.18;;
58659;SDS011;44429;45.110;20.622;2023-04-24T14:46:31;18.92;;;12.82;;
58659;SDS011;44429;45.110;20.622;2023-04-24T14:48:57;21.67;;;14.82;;
58659;SDS011;44429;45.110;20.622;2023-04-24T14:51:23;16.80;;;11.93;;
58659;SDS011;44429;45.110;20.622;2023-04-24T14:53:50;13.48;;;8.35;;
58659;SDS011;44429;45.110;20.622;2023-04-24T14:56:16;11.50;;;8.10;;
58659;SDS011;44429;45.110;20.622;2023-04-24T14:58:42;13.48;;;7.75;;
58659;SDS011;44429;45.110;20.622;2023-04-24T15:01:09;16.15;;;10.63;;
58659;SDS011;44429;45.110;20.622;2023-04-24T15:03:35;14.98;;;8.80;;
58659;SDS011;44429;45.110;20.622;2023-04-24T15:06:01;15.55;;;8.75;;
58659;SDS011;44429;45.110;20.622;2023-04-24T15:08:27;14.18;;;7.78;;